createdAt,value
2022-09-20T00:00:30.838Z,7.52
2022-09-20T00:01:30.835Z,7.46
2022-09-20T00:02:30.759Z,7.44
2022-09-20T00:03:30.730Z,7.49
2022-09-20T00:04:30.696Z,7.46
2022-09-20T00:05:30.678Z,7.43
2022-09-20T00:06:30.627Z,7.43
2022-09-20T00:07:30.583Z,7.46
2022-09-20T00:08:30.571Z,7.44
2022-09-20T00:09:30.507Z,7.42
2022-09-20T00:10:30.481Z,7.50
2022-09-20T00:11:30.443Z,7.44
2022-09-20T00:12:30.411Z,7.36
2022-09-20T00:13:30.362Z,7.37
2022-09-20T00:14:30.341Z,7.46
2022-09-20T00:15:30.293Z,7.40
2022-09-20T00:16:30.316Z,7.40
2022-09-20T00:17:30.214Z,7.40
2022-09-20T00:18:30.183Z,7.42
2022-09-20T00:19:30.153Z,7.40
2022-09-20T00:20:30.110Z,7.44
2022-09-20T00:21:30.064Z,7.40
2022-09-20T00:22:30.032Z,7.40
2022-09-20T00:23:29.993Z,7.39
2022-09-20T00:24:29.974Z,7.42
2022-09-20T00:25:29.912Z,7.42
2022-09-20T00:26:29.884Z,7.40
2022-09-20T00:27:29.833Z,7.40
2022-09-20T00:28:29.794Z,7.44
2022-09-20T00:29:29.765Z,7.42
2022-09-20T00:30:29.717Z,7.46
2022-09-20T00:31:29.704Z,7.44
2022-09-20T00:32:29.646Z,7.43
2022-09-20T00:33:29.588Z,7.44
2022-09-20T00:34:29.578Z,7.39
2022-09-20T00:35:29.516Z,7.40
2022-09-20T00:36:29.489Z,7.42
2022-09-20T00:37:29.437Z,7.37
2022-09-20T00:38:29.405Z,7.39
2022-09-20T00:39:29.367Z,7.40
2022-09-20T00:40:29.432Z,7.39
2022-09-20T00:41:29.287Z,7.44
2022-09-20T00:42:29.258Z,7.43
2022-09-20T00:43:29.217Z,7.44
2022-09-20T00:44:29.176Z,7.44
2022-09-20T00:45:29.210Z,7.36
2022-09-20T00:46:29.099Z,7.44
2022-09-20T00:47:29.059Z,7.47
2022-09-20T00:48:29.021Z,7.40
2022-09-20T00:49:28.979Z,7.44
2022-09-20T00:50:28.952Z,7.46
2022-09-20T00:51:28.914Z,7.47
2022-09-20T00:52:28.862Z,7.46
2022-09-20T00:53:28.831Z,7.47
2022-09-20T00:54:28.789Z,7.44
2022-09-20T00:55:28.769Z,7.42
2022-09-20T00:56:28.712Z,7.43
2022-09-20T00:57:28.681Z,7.44
2022-09-20T00:58:28.640Z,7.42
2022-09-20T00:59:28.612Z,7.46
2022-09-20T01:00:28.581Z,7.46
2022-09-20T01:01:28.592Z,7.46
2022-09-20T01:02:28.513Z,7.42
2022-09-20T01:03:28.450Z,7.47
2022-09-20T01:04:28.404Z,7.42
2022-09-20T01:05:28.383Z,7.42
2022-09-20T01:06:28.324Z,7.40
2022-09-20T01:07:28.283Z,7.40
2022-09-20T01:08:28.246Z,7.39
2022-09-20T01:09:28.195Z,7.43
2022-09-20T01:10:28.176Z,7.39
2022-09-20T01:11:28.146Z,7.40
2022-09-20T01:12:28.095Z,7.42
2022-09-20T01:13:28.075Z,7.39
2022-09-20T01:14:28.023Z,7.37
2022-09-20T01:15:27.986Z,7.44
2022-09-20T01:16:28.036Z,7.39
2022-09-20T01:17:27.897Z,7.40
2022-09-20T01:18:27.857Z,7.36
2022-09-20T01:19:27.821Z,7.39
2022-09-20T01:20:27.788Z,7.42
2022-09-20T01:21:27.768Z,7.44
2022-09-20T01:22:27.719Z,7.36
2022-09-20T01:23:27.677Z,7.39
2022-09-20T01:24:27.638Z,7.33
2022-09-20T01:25:27.607Z,7.39
2022-09-20T01:26:27.576Z,7.37
2022-09-20T01:27:27.546Z,7.40
2022-09-20T01:28:27.500Z,7.34
2022-09-20T01:29:27.440Z,7.36
2022-09-20T01:30:27.410Z,7.34
2022-09-20T01:31:27.466Z,7.37
2022-09-20T01:32:27.351Z,7.36
2022-09-20T01:33:27.313Z,7.34
2022-09-20T01:34:27.280Z,7.39
2022-09-20T01:35:27.241Z,7.33
2022-09-20T01:36:27.202Z,7.37
2022-09-20T01:37:27.207Z,7.36
2022-09-20T01:38:27.144Z,7.33
2022-09-20T01:39:27.092Z,7.33
2022-09-20T01:40:27.137Z,7.33
2022-09-20T01:41:27.013Z,7.33
2022-09-20T01:42:26.972Z,7.31
2022-09-20T01:43:26.944Z,7.33
2022-09-20T01:44:26.904Z,7.34
2022-09-20T01:45:26.945Z,7.34
2022-09-20T01:46:26.812Z,7.33
2022-09-20T01:47:26.774Z,7.33
2022-09-20T01:48:26.755Z,7.36
2022-09-20T01:49:26.695Z,7.43
2022-09-20T01:50:26.667Z,7.39
2022-09-20T01:51:26.616Z,7.36
2022-09-20T01:52:26.577Z,7.36
2022-09-20T01:53:26.554Z,7.36
2022-09-20T01:54:26.516Z,7.37
2022-09-20T01:55:26.436Z,7.39
2022-09-20T01:56:26.407Z,7.36
2022-09-20T01:57:27.446Z,7.42
2022-09-20T01:58:26.335Z,7.36
2022-09-20T01:59:26.594Z,7.34
2022-09-20T02:00:26.257Z,7.36
2022-09-20T02:01:26.288Z,7.37
2022-09-20T02:02:26.252Z,7.39
2022-09-20T02:03:26.139Z,7.49
2022-09-20T02:04:26.088Z,7.36
2022-09-20T02:05:26.050Z,7.42
2022-09-20T02:06:26.010Z,7.34
2022-09-20T02:07:25.967Z,7.42
2022-09-20T02:08:25.940Z,7.36
2022-09-20T02:09:25.931Z,7.40
2022-09-20T02:10:25.886Z,7.39
2022-09-20T02:11:25.831Z,7.39
2022-09-20T02:12:25.791Z,7.42
2022-09-20T02:13:25.751Z,7.42
2022-09-20T02:14:25.732Z,7.40
2022-09-20T02:15:25.683Z,7.40
2022-09-20T02:16:25.737Z,7.36
2022-09-20T02:17:25.601Z,7.42
2022-09-20T02:18:25.572Z,7.37
2022-09-20T02:19:25.541Z,7.46
2022-09-20T02:20:25.491Z,7.33
2022-09-20T02:21:25.443Z,7.37
2022-09-20T02:22:25.411Z,7.34
2022-09-20T02:23:25.373Z,7.39
2022-09-20T02:24:25.353Z,7.46
2022-09-20T02:25:25.284Z,7.43
2022-09-20T02:26:25.252Z,7.43
2022-09-20T02:27:25.204Z,7.44
2022-09-20T02:28:25.184Z,7.40
2022-09-20T02:29:25.147Z,7.40
2022-09-20T02:30:25.107Z,7.37
2022-09-20T02:31:25.092Z,7.42
2022-09-20T02:32:25.028Z,7.37
2022-09-20T02:33:24.986Z,7.42
2022-09-20T02:34:24.956Z,7.37
2022-09-20T02:35:24.916Z,7.39
2022-09-20T02:36:24.877Z,7.37
2022-09-20T02:37:24.824Z,7.39
2022-09-20T02:38:24.797Z,7.37
2022-09-20T02:39:24.737Z,7.39
2022-09-20T02:40:24.746Z,7.36
2022-09-20T02:41:24.647Z,7.39
2022-09-20T02:42:24.608Z,7.34
2022-09-20T02:43:24.568Z,7.39
2022-09-20T02:44:24.528Z,7.34
2022-09-20T02:45:24.509Z,7.36
2022-09-20T02:46:24.460Z,7.39
2022-09-20T02:47:24.409Z,7.36
2022-09-20T02:48:24.379Z,7.39
2022-09-20T02:49:24.339Z,7.37
2022-09-20T02:50:24.320Z,7.34
2022-09-20T02:51:24.250Z,7.39
2022-09-20T02:52:24.221Z,7.31
2022-09-20T02:53:24.168Z,7.33
2022-09-20T02:54:24.129Z,7.34
2022-09-20T02:55:24.111Z,7.36
2022-09-20T02:56:24.051Z,7.36
2022-09-20T02:57:24.001Z,7.37
2022-09-20T02:58:23.961Z,7.36
2022-09-20T02:59:23.932Z,7.33
2022-09-20T03:00:23.875Z,7.31
2022-09-20T03:01:23.994Z,7.31
2022-09-20T03:02:23.884Z,7.31
2022-09-20T03:03:23.753Z,7.33
2022-09-20T03:04:23.714Z,7.28
2022-09-20T03:05:23.671Z,7.36
2022-09-20T03:06:23.640Z,7.31
2022-09-20T03:07:23.580Z,7.24
2022-09-20T03:08:23.543Z,7.26
2022-09-20T03:09:23.488Z,7.22
2022-09-20T03:10:23.443Z,7.26
2022-09-20T03:11:23.412Z,7.28
2022-09-20T03:12:23.354Z,7.26
2022-09-20T03:13:23.315Z,7.26
2022-09-20T03:14:23.296Z,7.25
2022-09-20T03:15:23.207Z,7.33
2022-09-20T03:16:23.204Z,7.22
2022-09-20T03:17:23.137Z,7.25
2022-09-20T03:18:23.075Z,7.24
2022-09-20T03:19:23.026Z,7.22
2022-09-20T03:20:22.987Z,7.22
2022-09-20T03:21:22.936Z,7.19
2022-09-20T03:22:22.917Z,7.15
2022-09-20T03:23:22.847Z,7.16
2022-09-20T03:24:22.820Z,7.11
2022-09-20T03:25:22.766Z,7.13
2022-09-20T03:26:22.719Z,7.15
2022-09-20T03:27:22.689Z,7.13
2022-09-20T03:28:22.639Z,7.18
2022-09-20T03:29:22.580Z,7.16
2022-09-20T03:30:22.549Z,7.21
2022-09-20T03:31:22.582Z,7.15
2022-09-20T03:32:22.460Z,7.11
2022-09-20T03:33:22.427Z,7.07
2022-09-20T03:34:22.380Z,7.15
2022-09-20T03:35:22.321Z,7.07
2022-09-20T03:36:22.281Z,7.04
2022-09-20T03:37:22.239Z,7.07
2022-09-20T03:38:22.213Z,6.97
2022-09-20T03:39:22.161Z,7.06
2022-09-20T03:40:22.159Z,7.04
2022-09-20T03:41:22.072Z,6.97
2022-09-20T03:42:22.043Z,7.00
2022-09-20T03:43:21.999Z,6.88
2022-09-20T03:44:21.953Z,6.86
2022-09-20T03:45:21.903Z,6.86
2022-09-20T03:46:21.900Z,6.78
2022-09-20T03:47:21.812Z,6.73
2022-09-20T03:48:21.785Z,6.68
2022-09-20T03:49:21.755Z,6.68
2022-09-20T03:50:21.693Z,6.56
2022-09-20T03:51:21.645Z,6.63
2022-09-20T03:52:21.614Z,6.65
2022-09-20T03:53:21.554Z,6.56
2022-09-20T03:54:21.535Z,6.52
2022-09-20T03:55:21.485Z,6.52
2022-09-20T03:56:21.444Z,6.47
2022-09-20T03:57:21.413Z,6.49
2022-09-20T03:58:21.356Z,6.49
2022-09-20T03:59:21.314Z,6.50
2022-09-20T04:00:21.268Z,6.45
2022-09-20T04:01:21.245Z,6.52
2022-09-20T04:02:21.261Z,6.40
2022-09-20T04:03:21.137Z,6.43
2022-09-20T04:04:21.109Z,6.46
2022-09-20T04:05:21.036Z,6.49
2022-09-20T04:06:21.020Z,6.46
2022-09-20T04:07:20.969Z,6.50
2022-09-20T04:08:20.939Z,6.49
2022-09-20T04:09:20.878Z,6.46
2022-09-20T04:10:20.859Z,6.42
2022-09-20T04:11:20.809Z,6.42
2022-09-20T04:12:20.778Z,6.43
2022-09-20T04:13:20.750Z,6.42
2022-09-20T04:14:20.720Z,6.40
2022-09-20T04:15:20.692Z,6.40
2022-09-20T04:16:20.730Z,6.38
2022-09-20T04:17:20.631Z,6.38
2022-09-20T04:18:20.581Z,6.35
2022-09-20T04:19:20.531Z,6.32
2022-09-20T04:20:20.513Z,6.28
2022-09-20T04:21:20.462Z,6.38
2022-09-20T04:22:20.432Z,6.25
2022-09-20T04:23:20.390Z,6.24
2022-09-20T04:24:20.373Z,6.15
2022-09-20T04:25:20.352Z,6.16
2022-09-20T04:26:20.293Z,6.15
2022-09-20T04:27:20.244Z,6.13
2022-09-20T04:28:20.223Z,6.08
2022-09-20T04:29:20.178Z,6.06
2022-09-20T04:30:20.134Z,6.03
2022-09-20T04:31:20.967Z,6.06
2022-09-20T04:32:20.122Z,5.95
2022-09-20T04:33:20.024Z,5.90
2022-09-20T04:34:19.995Z,5.79
2022-09-20T04:35:19.946Z,5.75
2022-09-20T04:36:19.937Z,5.76
2022-09-20T04:37:19.885Z,5.67
2022-09-20T04:38:19.855Z,5.62
2022-09-20T04:39:19.826Z,5.67
2022-09-20T04:40:19.864Z,5.62
2022-09-20T04:41:19.766Z,5.61
2022-09-20T04:42:19.747Z,5.57
2022-09-20T04:43:19.706Z,5.58
2022-09-20T04:44:19.687Z,5.58
2022-09-20T04:45:19.646Z,5.61
2022-09-20T04:46:19.679Z,5.61
2022-09-20T04:47:19.597Z,5.59
2022-09-20T04:48:19.567Z,5.61
2022-09-20T04:49:19.538Z,5.62
2022-09-20T04:50:19.506Z,5.58
2022-09-20T04:51:19.496Z,5.65
2022-09-20T04:52:19.439Z,5.62
2022-09-20T04:53:19.409Z,5.58
2022-09-20T04:54:19.397Z,5.59
2022-09-20T04:55:19.350Z,5.58
2022-09-20T04:56:19.319Z,5.58
2022-09-20T04:57:19.319Z,5.52
2022-09-20T04:58:19.272Z,5.52
2022-09-20T04:59:19.232Z,5.55
2022-09-20T05:00:19.217Z,5.44
2022-09-20T05:01:19.317Z,5.52
2022-09-20T05:02:19.206Z,5.48
2022-09-20T05:03:19.141Z,5.43
2022-09-20T05:04:19.101Z,5.41
2022-09-20T05:05:19.083Z,5.30
2022-09-20T05:06:19.055Z,5.36
2022-09-20T05:07:19.042Z,5.32
2022-09-20T05:08:19.012Z,5.27
2022-09-20T05:09:18.993Z,5.30
2022-09-20T05:10:18.976Z,5.30
2022-09-20T05:11:18.942Z,5.33
2022-09-20T05:12:18.926Z,5.30
2022-09-20T05:13:18.903Z,5.30
2022-09-20T05:14:18.906Z,5.29
2022-09-20T05:15:18.854Z,5.36
2022-09-20T05:16:18.866Z,5.34
2022-09-20T05:17:18.832Z,5.39
2022-09-20T05:18:18.794Z,5.41
2022-09-20T05:19:18.775Z,5.41
2022-09-20T05:20:18.737Z,5.44
2022-09-20T05:21:18.726Z,5.43
2022-09-20T05:22:18.716Z,5.47
2022-09-20T05:23:18.666Z,5.54
2022-09-20T05:24:18.646Z,5.54
2022-09-20T05:25:18.616Z,5.51
2022-09-20T05:26:18.597Z,5.54
2022-09-20T05:27:18.589Z,5.58
2022-09-20T05:28:18.576Z,5.62
2022-09-20T05:29:18.556Z,5.67
2022-09-20T05:30:18.517Z,5.72
2022-09-20T05:31:18.529Z,5.72
2022-09-20T05:32:18.477Z,5.75
2022-09-20T05:33:18.465Z,5.79
2022-09-20T05:34:18.427Z,5.80
2022-09-20T05:35:18.408Z,5.85
2022-09-20T05:36:18.379Z,5.91
2022-09-20T05:37:18.340Z,5.95
2022-09-20T05:38:18.347Z,5.93
2022-09-20T05:39:18.298Z,5.97
2022-09-20T05:40:18.303Z,6.02
2022-09-20T05:41:18.261Z,6.05
2022-09-20T05:42:18.249Z,6.06
2022-09-20T05:43:18.228Z,6.08
2022-09-20T05:44:18.187Z,6.09
2022-09-20T05:45:18.185Z,6.11
2022-09-20T05:46:18.141Z,6.12
2022-09-20T05:47:18.112Z,6.12
2022-09-20T05:48:18.101Z,6.13
2022-09-20T05:49:18.075Z,6.16
2022-09-20T05:50:18.040Z,6.13
2022-09-20T05:51:18.002Z,6.15
2022-09-20T05:52:17.975Z,6.16
2022-09-20T05:53:17.954Z,6.21
2022-09-20T05:54:17.941Z,6.19
2022-09-20T05:55:17.905Z,6.18
2022-09-20T05:56:17.873Z,6.21
2022-09-20T05:57:17.851Z,6.21
2022-09-20T05:58:17.812Z,6.24
2022-09-20T05:59:17.793Z,6.25
2022-09-20T06:00:17.767Z,6.30
2022-09-20T06:01:17.781Z,6.30
2022-09-20T06:02:17.777Z,6.30
2022-09-20T06:03:17.695Z,6.31
2022-09-20T06:04:17.668Z,6.37
2022-09-20T06:05:17.645Z,6.46
2022-09-20T06:06:17.635Z,6.45
2022-09-20T06:07:17.596Z,6.45
2022-09-20T06:08:17.566Z,6.43
2022-09-20T06:09:17.556Z,6.45
2022-09-20T06:10:17.516Z,6.43
2022-09-20T06:11:17.496Z,6.50
2022-09-20T06:12:17.468Z,6.45
2022-09-20T06:13:17.455Z,6.49
2022-09-20T06:14:17.427Z,6.46
2022-09-20T06:15:17.394Z,6.46
2022-09-20T06:16:17.377Z,6.43
2022-09-20T06:17:17.307Z,6.46
2022-09-20T06:18:17.285Z,6.50
2022-09-20T06:19:17.253Z,6.53
2022-09-20T06:20:17.219Z,6.53
2022-09-20T06:21:17.169Z,6.61
2022-09-20T06:22:17.129Z,6.64
2022-09-20T06:23:17.110Z,6.64
2022-09-20T06:24:17.070Z,6.67
2022-09-20T06:25:17.050Z,6.64
2022-09-20T06:26:17.008Z,6.61
2022-09-20T06:27:16.980Z,6.70
2022-09-20T06:28:16.939Z,6.68
2022-09-20T06:29:16.921Z,6.71
2022-09-20T06:30:16.911Z,6.70
2022-09-20T06:31:16.862Z,6.75
2022-09-20T06:32:16.843Z,6.79
2022-09-20T06:33:16.830Z,6.82
2022-09-20T06:34:16.790Z,6.78
2022-09-20T06:35:16.772Z,6.79
2022-09-20T06:36:16.733Z,6.78
2022-09-20T06:37:16.713Z,6.75
2022-09-20T06:38:16.685Z,6.75
2022-09-20T06:39:16.662Z,6.81
2022-09-20T06:40:16.657Z,6.73
2022-09-20T06:41:16.613Z,6.70
2022-09-20T06:42:16.567Z,6.68
2022-09-20T06:43:16.532Z,6.65
2022-09-20T06:44:16.495Z,6.67
2022-09-20T06:45:16.465Z,6.68
2022-09-20T06:46:16.469Z,6.67
2022-09-20T06:47:16.405Z,6.86
2022-09-20T06:48:16.375Z,7.19
2022-09-20T06:49:16.336Z,7.46
2022-09-20T06:50:16.300Z,7.73
2022-09-20T06:51:16.276Z,7.96
2022-09-20T06:52:16.218Z,7.94
2022-09-20T06:53:16.166Z,7.96
2022-09-20T06:54:16.119Z,8.01
2022-09-20T06:55:16.077Z,8.02
2022-09-20T06:56:16.038Z,8.04
2022-09-20T06:57:15.965Z,8.04
2022-09-20T06:58:15.908Z,8.06
2022-09-20T06:59:15.858Z,8.12
2022-09-20T07:00:15.810Z,8.17
2022-09-20T07:01:26.451Z,8.05
2022-09-20T07:02:16.735Z,8.09
2022-09-20T07:03:15.649Z,7.99
2022-09-20T07:04:15.599Z,7.99
2022-09-20T07:05:15.561Z,8.01
2022-09-20T07:06:15.500Z,7.99
2022-09-20T07:07:15.468Z,8.02
2022-09-20T07:08:15.401Z,7.98
2022-09-20T07:09:15.351Z,7.99
2022-09-20T07:10:15.310Z,7.99
2022-09-20T07:11:15.253Z,8.01
2022-09-20T07:12:15.201Z,7.95
2022-09-20T07:13:15.152Z,7.98
2022-09-20T07:14:15.102Z,7.96
2022-09-20T07:15:15.052Z,7.99
2022-09-20T07:16:15.051Z,7.96
2022-09-20T07:17:14.963Z,7.95
2022-09-20T07:18:14.883Z,7.98
2022-09-20T07:19:14.834Z,7.96
2022-09-20T07:20:18.408Z,7.98
2022-09-20T07:21:15.735Z,8.01
2022-09-20T07:22:14.689Z,7.99
2022-09-20T07:23:14.650Z,7.96
2022-09-20T07:24:14.583Z,7.92
2022-09-20T07:25:14.548Z,8.02
2022-09-20T07:26:14.485Z,8.09
2022-09-20T07:27:14.425Z,8.10
2022-09-20T07:28:14.387Z,8.04
2022-09-20T07:29:14.326Z,8.10
2022-09-20T07:30:14.284Z,8.14
2022-09-20T07:31:14.303Z,8.20
2022-09-20T07:32:14.188Z,8.19
2022-09-20T07:33:14.147Z,8.26
2022-09-20T07:34:14.096Z,8.19
2022-09-20T07:35:14.047Z,8.19
2022-09-20T07:36:13.998Z,8.16
2022-09-20T07:37:13.939Z,8.17
2022-09-20T07:38:13.907Z,8.23
2022-09-20T07:39:13.858Z,8.26
2022-09-20T07:40:13.836Z,8.26
2022-09-20T07:41:13.738Z,8.23
2022-09-20T07:42:13.688Z,8.19
2022-09-20T07:43:13.660Z,8.17
2022-09-20T07:44:13.601Z,8.20
2022-09-20T07:45:13.550Z,8.20
2022-09-20T07:46:13.567Z,8.17
2022-09-20T07:47:13.461Z,8.14
2022-09-20T07:48:13.421Z,8.10
2022-09-20T07:49:13.373Z,8.12
2022-09-20T07:50:13.321Z,8.09
2022-09-20T07:51:13.271Z,8.12
2022-09-20T07:52:13.219Z,8.09
2022-09-20T07:53:13.203Z,8.05
2022-09-20T07:54:13.133Z,8.06
2022-09-20T07:55:13.085Z,8.05
2022-09-20T07:56:13.022Z,8.04
2022-09-20T07:57:12.973Z,8.06
2022-09-20T07:58:12.923Z,8.06
2022-09-20T07:59:12.894Z,8.09
2022-09-20T08:00:12.824Z,8.09
2022-09-20T08:01:12.796Z,8.09
2022-09-20T08:02:12.787Z,8.10
2022-09-20T08:03:12.676Z,8.12
2022-09-20T08:04:12.644Z,8.13
2022-09-20T08:05:12.588Z,8.06
2022-09-20T08:06:12.526Z,8.12
2022-09-20T08:07:12.474Z,8.16
2022-09-20T08:08:12.435Z,8.12
2022-09-20T08:09:12.396Z,8.12
2022-09-20T08:10:12.326Z,8.13
2022-09-20T08:11:12.287Z,8.10
2022-09-20T08:14:13.163Z,8.10
2022-09-20T08:15:12.251Z,8.09
2022-09-20T08:16:12.161Z,8.10
2022-09-20T08:17:11.981Z,8.09
2022-09-20T08:18:11.926Z,8.10
2022-09-20T08:19:11.880Z,8.13
2022-09-20T08:20:11.839Z,8.17
2022-09-20T08:21:11.779Z,8.13
2022-09-20T08:22:11.739Z,8.09
2022-09-20T08:23:22.419Z,8.10
2022-09-20T08:24:12.641Z,8.05
2022-09-20T08:25:11.621Z,8.06
2022-09-20T08:26:11.551Z,8.05
2022-09-20T08:27:11.514Z,8.01
2022-09-20T08:28:11.473Z,8.06
2022-09-20T08:29:11.432Z,8.02
2022-09-20T08:30:11.382Z,8.02
2022-09-20T08:31:11.332Z,8.05
2022-09-20T08:32:11.272Z,8.05
2022-09-20T08:33:11.235Z,8.05
2022-09-20T08:34:11.163Z,8.09
2022-09-20T08:35:11.145Z,8.13
2022-09-20T08:36:11.095Z,8.09
2022-09-20T08:37:11.025Z,8.13
2022-09-20T08:40:11.899Z,8.23
2022-09-20T08:41:10.815Z,8.29
2022-09-20T08:42:10.765Z,8.32
2022-09-20T08:43:10.716Z,8.41
2022-09-20T08:44:10.665Z,8.41
2022-09-20T08:45:10.626Z,8.41
2022-09-20T08:46:10.609Z,8.34
2022-09-20T08:47:10.512Z,8.37
2022-09-20T08:48:10.466Z,8.41
2022-09-20T08:49:10.779Z,8.41
2022-09-20T08:50:11.453Z,8.47
2022-09-20T08:51:10.317Z,8.42
2022-09-20T08:52:10.625Z,8.39
2022-09-20T08:53:10.226Z,8.41
2022-09-20T08:54:10.165Z,8.44
2022-09-20T08:55:10.138Z,8.49
2022-09-20T08:56:10.058Z,8.55
2022-09-20T08:57:10.008Z,8.59
2022-09-20T08:58:09.940Z,8.60
2022-09-20T08:59:09.899Z,8.62
2022-09-20T09:00:09.830Z,8.62
2022-09-20T09:01:09.836Z,8.62
2022-09-20T09:02:09.787Z,8.57
2022-09-20T09:03:09.688Z,8.63
2022-09-20T09:04:09.630Z,8.60
2022-09-20T09:05:09.590Z,8.60
2022-09-20T09:06:13.273Z,8.57
2022-09-20T09:07:10.491Z,8.60
2022-09-20T09:08:09.442Z,8.59
2022-09-20T09:09:09.391Z,8.59
2022-09-20T09:10:09.322Z,8.57
2022-09-20T09:11:09.302Z,8.59
2022-09-20T09:12:09.234Z,8.57
2022-09-20T09:13:09.191Z,8.55
2022-09-20T09:14:09.143Z,8.57
2022-09-20T09:15:09.083Z,8.70
2022-09-20T09:16:09.079Z,8.71
2022-09-20T09:17:09.001Z,8.60
2022-09-20T09:18:08.914Z,8.63
2022-09-20T09:19:08.870Z,8.68
2022-09-20T09:20:08.814Z,8.77
2022-09-20T09:21:08.749Z,8.92
2022-09-20T09:22:08.705Z,9.12
2022-09-20T09:23:08.691Z,9.29
2022-09-20T09:24:08.575Z,9.55
2022-09-20T09:25:08.526Z,9.72
2022-09-20T09:26:08.466Z,9.81
2022-09-20T09:27:08.417Z,9.93
2022-09-20T09:28:08.346Z,9.93
2022-09-20T09:29:08.308Z,9.87
2022-09-20T09:30:08.239Z,9.80
2022-09-20T09:31:08.167Z,9.72
2022-09-20T09:32:08.158Z,9.66
2022-09-20T09:33:08.058Z,9.50
2022-09-20T09:34:08.058Z,9.44
2022-09-20T09:35:07.947Z,9.37
2022-09-20T09:36:07.909Z,9.33
2022-09-20T09:37:07.820Z,9.40
2022-09-20T09:38:07.779Z,9.45
2022-09-20T09:39:07.717Z,9.34
2022-09-20T09:40:07.718Z,9.45
2022-09-20T09:41:07.579Z,9.44
2022-09-20T09:42:07.530Z,9.42
2022-09-20T09:43:07.480Z,9.42
2022-09-20T09:44:07.421Z,9.33
2022-09-20T09:45:07.363Z,9.29
2022-09-20T09:46:07.357Z,9.29
2022-09-20T09:47:07.231Z,9.22
2022-09-20T09:48:07.192Z,9.19
2022-09-20T09:49:09.936Z,9.09
2022-09-20T09:50:09.862Z,9.04
2022-09-20T09:51:06.993Z,9.08
2022-09-20T09:52:06.942Z,9.03
2022-09-20T09:53:06.876Z,9.11
2022-09-20T09:54:06.845Z,9.06
2022-09-20T09:55:06.774Z,9.08
2022-09-20T09:56:09.785Z,9.06
2022-09-20T09:57:07.673Z,9.09
2022-09-20T09:58:06.614Z,9.11
2022-09-20T09:59:06.581Z,9.09
2022-09-20T10:00:14.236Z,9.16
2022-09-20T10:01:07.517Z,9.22
2022-09-20T10:02:06.517Z,9.23
2022-09-20T10:03:06.318Z,9.26
2022-09-20T10:04:06.332Z,9.27
2022-09-20T10:05:06.215Z,9.30
2022-09-20T10:06:06.151Z,9.27
2022-09-20T10:07:06.065Z,9.22
2022-09-20T10:08:06.017Z,9.24
2022-09-20T10:09:05.948Z,9.24
2022-09-20T10:10:05.902Z,9.27
2022-09-20T10:11:05.809Z,9.30
2022-09-20T10:12:05.759Z,9.48
2022-09-20T10:13:05.689Z,9.57
2022-09-20T10:14:05.641Z,9.65
2022-09-20T10:15:05.570Z,9.78
2022-09-20T10:16:05.538Z,9.96
2022-09-20T10:17:05.435Z,9.96
2022-09-20T10:18:05.387Z,9.88
2022-09-20T10:19:05.402Z,9.90
2022-09-20T10:20:05.272Z,10.06
2022-09-20T10:21:05.201Z,10.20
2022-09-20T10:22:05.141Z,10.38
2022-09-20T10:23:39.553Z,10.43
2022-09-20T10:24:06.014Z,10.52
2022-09-20T10:25:04.952Z,10.62
2022-09-20T10:26:04.873Z,10.61
2022-09-20T10:27:04.793Z,10.48
2022-09-20T10:28:04.754Z,10.52
2022-09-20T10:29:04.665Z,10.48
2022-09-20T10:30:04.627Z,10.48
2022-09-20T10:31:04.578Z,10.43
2022-09-20T10:32:04.485Z,10.42
2022-09-20T10:33:04.414Z,10.36
2022-09-20T10:34:04.375Z,10.23
2022-09-20T10:35:04.305Z,10.10
2022-09-20T10:36:04.236Z,10.03
2022-09-20T10:37:04.178Z,9.91
2022-09-20T10:38:04.109Z,9.69
2022-09-20T10:39:04.046Z,9.51
2022-09-20T10:40:04.063Z,9.30
2022-09-20T10:41:03.937Z,9.15
2022-09-20T10:42:03.867Z,9.08
2022-09-20T10:43:03.800Z,8.92
2022-09-20T10:44:05.607Z,8.80
2022-09-20T10:45:03.679Z,8.74
2022-09-20T10:46:30.353Z,8.68
2022-09-20T10:47:04.598Z,8.70
2022-09-20T10:48:03.509Z,8.70
2022-09-20T10:49:03.437Z,8.71
2022-09-20T10:50:03.381Z,8.70
2022-09-20T10:51:03.336Z,8.63
2022-09-20T10:52:03.271Z,8.63
2022-09-20T10:53:03.215Z,8.60
2022-09-20T10:54:03.151Z,8.60
2022-09-20T10:55:03.105Z,8.59
2022-09-20T10:56:03.062Z,8.56
2022-09-20T10:57:02.980Z,8.56
2022-09-20T10:58:02.934Z,8.62
2022-09-20T10:59:02.872Z,8.62
2022-09-20T11:00:02.822Z,8.65
2022-09-20T11:01:02.835Z,8.72
2022-09-20T11:02:02.807Z,8.74
2022-09-20T11:03:02.663Z,8.81
2022-09-20T11:04:02.624Z,8.93
2022-09-20T11:05:02.572Z,9.04
2022-09-20T11:06:02.514Z,9.11
2022-09-20T11:07:02.485Z,9.16
2022-09-20T11:08:02.434Z,9.23
2022-09-20T11:09:02.370Z,9.34
2022-09-20T11:10:02.324Z,9.42
2022-09-20T11:11:02.273Z,9.47
2022-09-20T11:12:02.234Z,9.54
2022-09-20T11:13:02.185Z,9.55
2022-09-20T11:14:02.106Z,9.66
2022-09-20T11:15:02.056Z,9.65
2022-09-20T11:16:01.996Z,9.69
2022-09-20T11:17:02.054Z,9.73
2022-09-20T11:18:01.894Z,9.72
2022-09-20T11:19:01.839Z,9.80
2022-09-20T11:20:06.909Z,9.75
2022-09-20T11:21:02.738Z,9.75
2022-09-20T11:22:01.698Z,9.73
2022-09-20T11:23:01.617Z,9.80
2022-09-20T11:24:01.571Z,9.81
2022-09-20T11:25:01.499Z,9.81
2022-09-20T11:26:01.439Z,9.96
2022-09-20T11:27:01.402Z,10.02
2022-09-20T11:28:01.330Z,10.08
2022-09-20T11:29:01.260Z,10.16
2022-09-20T11:30:01.200Z,10.10
2022-09-20T11:31:01.155Z,10.16
2022-09-20T11:32:01.147Z,10.31
2022-09-20T11:33:01.041Z,10.24
2022-09-20T11:34:00.995Z,10.38
2022-09-20T11:35:00.912Z,10.45
2022-09-20T11:36:00.862Z,10.58
2022-09-20T11:37:00.803Z,10.68
2022-09-20T11:38:00.762Z,10.87
2022-09-20T11:39:00.679Z,10.97
2022-09-20T11:40:00.680Z,11.04
2022-09-20T11:41:00.553Z,10.95
2022-09-20T11:42:00.503Z,10.76
2022-09-20T11:43:00.444Z,10.57
2022-09-20T11:44:00.374Z,10.30
2022-09-20T11:45:00.306Z,10.06
2022-09-20T11:46:00.313Z,9.93
2022-09-20T11:47:00.177Z,9.80
2022-09-20T11:48:00.125Z,9.59
2022-09-20T11:49:00.201Z,9.44
2022-09-20T11:49:59.985Z,9.30
2022-09-20T11:50:59.917Z,9.27
2022-09-20T11:51:59.857Z,9.15
2022-09-20T11:52:59.803Z,9.11
2022-09-20T11:53:59.739Z,9.01
2022-09-20T11:54:59.678Z,8.96
2022-09-20T11:55:59.617Z,8.89
2022-09-20T11:56:59.547Z,8.85
2022-09-20T11:57:59.507Z,8.81
2022-09-20T11:58:59.438Z,8.81
2022-09-20T11:59:59.397Z,8.78
2022-09-20T12:00:59.317Z,8.70
2022-09-20T12:01:59.292Z,8.63
2022-09-20T12:02:59.364Z,8.63
2022-09-20T12:04:20.523Z,8.63
2022-09-20T12:05:00.082Z,8.59
2022-09-20T12:05:59.023Z,8.60
2022-09-20T12:06:58.951Z,8.65
2022-09-20T12:07:58.920Z,8.67
2022-09-20T12:08:58.860Z,8.83
2022-09-20T12:09:58.801Z,9.01
2022-09-20T12:10:58.742Z,9.06
2022-09-20T12:11:58.701Z,9.16
2022-09-20T12:12:58.676Z,9.18
2022-09-20T12:13:58.593Z,9.37
2022-09-20T12:14:58.537Z,9.47
2022-09-20T12:15:58.474Z,9.51
2022-09-20T12:16:58.413Z,9.59
2022-09-20T12:17:58.352Z,9.73
2022-09-20T12:18:58.301Z,9.80
2022-09-20T12:19:58.249Z,9.85
2022-09-20T12:20:58.184Z,9.99
2022-09-20T12:21:58.132Z,10.14
2022-09-20T12:22:58.075Z,10.31
2022-09-20T12:23:58.050Z,10.35
2022-09-20T12:24:58.094Z,10.46
2022-09-20T12:25:57.919Z,10.41
2022-09-20T12:26:57.865Z,10.46
2022-09-20T12:27:57.808Z,10.52
2022-09-20T12:28:57.776Z,10.55
2022-09-20T12:29:57.687Z,10.68
2022-09-20T12:30:57.625Z,10.79
2022-09-20T12:31:57.597Z,10.97
2022-09-20T12:32:57.517Z,10.97
2022-09-20T12:33:57.468Z,11.09
2022-09-20T12:34:57.380Z,11.12
2022-09-20T12:35:57.336Z,11.13
2022-09-20T12:36:57.259Z,11.12
2022-09-20T12:37:57.201Z,11.05
2022-09-20T12:38:57.160Z,11.05
2022-09-20T12:39:57.128Z,10.93
2022-09-20T12:40:57.010Z,10.82
2022-09-20T12:41:56.939Z,10.68
2022-09-20T12:42:56.871Z,10.48
2022-09-20T12:43:56.803Z,10.28
2022-09-20T12:44:56.732Z,10.08
2022-09-20T12:46:01.268Z,9.81
2022-09-20T12:46:57.593Z,9.57
2022-09-20T12:47:56.521Z,9.41
2022-09-20T12:48:56.455Z,9.29
2022-09-20T12:49:56.414Z,9.14
2022-09-20T12:50:56.321Z,9.03
2022-09-20T12:51:56.276Z,8.93
2022-09-20T12:52:56.233Z,8.88
2022-09-20T12:53:56.143Z,8.85
2022-09-20T12:54:59.479Z,8.83
2022-09-20T12:55:57.013Z,8.71
2022-09-20T12:56:55.966Z,8.74
2022-09-20T12:57:55.906Z,8.71
2022-09-20T12:58:55.889Z,8.70
2022-09-20T12:59:55.823Z,8.62
2022-09-20T13:00:55.802Z,8.67
2022-09-20T13:01:55.694Z,8.67
2022-09-20T13:02:55.616Z,8.72
2022-09-20T13:03:55.557Z,8.80
2022-09-20T13:04:55.635Z,8.85
2022-09-20T13:05:55.467Z,8.98
2022-09-20T13:06:55.388Z,8.96
2022-09-20T13:07:55.327Z,8.98
2022-09-20T13:08:55.268Z,8.98
2022-09-20T13:09:55.216Z,8.96
2022-09-20T13:10:55.168Z,8.96
2022-09-20T13:11:55.108Z,8.98
2022-09-20T13:12:55.039Z,9.04
2022-09-20T13:13:54.995Z,9.14
2022-09-20T13:14:54.931Z,9.09
2022-09-20T13:15:54.914Z,9.08
2022-09-20T13:16:54.829Z,9.14
2022-09-20T13:17:54.794Z,9.12
2022-09-20T13:18:54.740Z,9.11
2022-09-20T13:19:54.690Z,9.16